Time;durP1;ratioP1;P1;durP2;ratioP2;P2;SDS_P1;SDS_P2;PMS_P1;PMS_P2;Temp;Humidity;BMP_temperature;BMP_pressure;BME280_temperature;BME280_humidity;BME280_pressure;Samples;Min_cycle;Max_cycle;Signal;HPM_P1;HPM_P2
2022/03/06 00:02:52;;;;;;;45.80;22.13;;;;;;;;;;6269893;28;20029;-65
2022/03/06 00:05:52;;;;;;;45.53;20.35;;;;;;;;;;6270240;28;20029;-65
2022/03/06 00:08:53;;;;;;;48.65;20.50;;;;;;;;;;6270297;28;20029;-65
2022/03/06 00:11:53;;;;;;;43.55;20.23;;;;;;;;;;6270299;28;20104;-65
2022/03/06 00:14:53;;;;;;;43.08;20.73;;;;;;;;;;6269958;28;20434;-64
2022/03/06 00:17:55;;;;;;;42.20;20.30;;;;;;;;;;6269948;28;20017;-64
2022/03/06 00:20:58;;;;;;;41.53;20.42;;;;;;;;;;6248411;28;20048;-64
2022/03/06 00:23:59;;;;;;;45.70;22.23;;;;;;;;;;6245125;28;20076;-64
2022/03/06 00:26:59;;;;;;;50.92;21.13;;;;;;;;;;6252811;28;20104;-64
2022/03/06 00:29:59;;;;;;;52.78;21.02;;;;;;;;;;6247390;28;20018;-64
2022/03/06 00:33:00;;;;;;;42.25;20.75;;;;;;;;;;6269020;28;20380;-64
2022/03/06 00:36:00;;;;;;;42.05;20.83;;;;;;;;;;6266756;28;20023;-64
2022/03/06 00:39:00;;;;;;;41.92;20.17;;;;;;;;;;6244795;28;20036;-64
2022/03/06 00:42:00;;;;;;;49.25;22.40;;;;;;;;;;6244362;28;20022;-65
2022/03/06 00:45:01;;;;;;;40.45;21.95;;;;;;;;;;6244403;28;20049;-64
2022/03/06 00:48:01;;;;;;;46.78;22.13;;;;;;;;;;6244405;28;20021;-65
2022/03/06 00:51:01;;;;;;;44.17;21.00;;;;;;;;;;6244162;28;20022;-64
2022/03/06 00:54:02;;;;;;;47.92;20.77;;;;;;;;;;6244380;28;20013;-64
2022/03/06 00:57:02;;;;;;;42.90;20.42;;;;;;;;;;6243981;28;20369;-64
2022/03/06 01:00:03;;;;;;;44.35;20.48;;;;;;;;;;6246919;28;20030;-64
2022/03/06 01:03:04;;;;;;;50.88;22.35;;;;;;;;;;6268628;28;20044;-64
2022/03/06 01:06:05;;;;;;;41.45;18.58;;;;;;;;;;6268683;28;20495;-65
2022/03/06 01:09:05;;;;;;;39.58;20.15;;;;;;;;;;6268924;28;20060;-64
2022/03/06 01:12:06;;;;;;;41.58;19.83;;;;;;;;;;6268270;28;20491;-64
2022/03/06 01:15:06;;;;;;;36.38;18.23;;;;;;;;;;6268910;28;20025;-64
2022/03/06 01:18:07;;;;;;;48.75;21.77;;;;;;;;;;6268390;28;20029;-65
2022/03/06 01:21:07;;;;;;;38.38;18.98;;;;;;;;;;6245095;28;20049;-65
2022/03/06 01:24:07;;;;;;;41.75;20.05;;;;;;;;;;6243607;28;20025;-65
2022/03/06 01:27:08;;;;;;;39.60;18.73;;;;;;;;;;6251191;28;20029;-65
2022/03/06 01:30:09;;;;;;;41.85;18.77;;;;;;;;;;6247178;28;20455;-65
2022/03/06 01:33:09;;;;;;;28.03;13.20;;;;;;;;;;6265883;28;20024;-64
2022/03/06 01:36:09;;;;;;;41.30;19.23;;;;;;;;;;6258431;28;20274;-65
2022/03/06 01:39:10;;;;;;;44.88;19.92;;;;;;;;;;6268227;28;20025;-65
2022/03/06 01:42:10;;;;;;;41.90;20.58;;;;;;;;;;6267883;28;20036;-65
2022/03/06 01:45:11;;;;;;;39.25;18.63;;;;;;;;;;6266880;28;20017;-65
2022/03/06 01:48:11;;;;;;;40.55;19.77;;;;;;;;;;6258235;28;20111;-64
2022/03/06 01:51:11;;;;;;;40.53;18.70;;;;;;;;;;6267038;28;20098;-64
2022/03/06 01:54:13;;;;;;;49.28;22.38;;;;;;;;;;6255469;28;20017;-65
2022/03/06 01:57:13;;;;;;;39.67;21.02;;;;;;;;;;6266644;28;20025;-64
2022/03/06 02:00:16;;;;;;;40.47;19.75;;;;;;;;;;6268381;28;20104;-64
2022/03/06 02:03:17;;;;;;;42.45;18.67;;;;;;;;;;6267702;28;20125;-64
2022/03/06 02:06:22;;;;;;;42.65;19.17;;;;;;;;;;6266561;28;20465;-64
2022/03/06 02:09:22;;;;;;;42.60;21.48;;;;;;;;;;6268183;28;20013;-64
2022/03/06 02:12:23;;;;;;;43.35;17.90;;;;;;;;;;6267457;28;20100;-64
2022/03/06 02:15:23;;;;;;;36.13;19.65;;;;;;;;;;6252754;28;20108;-65
2022/03/06 02:18:23;;;;;;;36.38;18.70;;;;;;;;;;6242610;28;20496;-64
2022/03/06 02:21:24;;;;;;;43.08;19.27;;;;;;;;;;6242848;28;20040;-66
2022/03/06 02:24:24;;;;;;;46.42;20.90;;;;;;;;;;6242861;28;20049;-65
2022/03/06 02:27:24;;;;;;;39.42;21.27;;;;;;;;;;6246743;28;20091;-64
2022/03/06 02:30:26;;;;;;;37.47;20.40;;;;;;;;;;6248577;28;20029;-64
2022/03/06 02:33:26;;;;;;;39.15;19.83;;;;;;;;;;6266897;28;20017;-64
2022/03/06 02:36:27;;;;;;;33.83;19.27;;;;;;;;;;6260973;28;20022;-65
2022/03/06 02:39:27;;;;;;;42.53;19.67;;;;;;;;;;6243079;28;20067;-65
2022/03/06 02:42:29;;;;;;;38.67;19.67;;;;;;;;;;6242452;28;20056;-65
2022/03/06 02:45:29;;;;;;;40.22;19.92;;;;;;;;;;6243017;28;20435;-65
2022/03/06 02:48:29;;;;;;;48.30;21.98;;;;;;;;;;6242461;28;20040;-64
2022/03/06 02:51:29;;;;;;;39.92;19.83;;;;;;;;;;6242451;28;20029;-64
2022/03/06 02:54:30;;;;;;;39.47;19.67;;;;;;;;;;6242811;28;20071;-64
2022/03/06 02:57:30;;;;;;;45.55;19.30;;;;;;;;;;6242854;28;20353;-64
2022/03/06 03:00:30;;;;;;;34.50;17.40;;;;;;;;;;6248950;28;20025;-64
2022/03/06 03:03:37;;;;;;;38.70;17.77;;;;;;;;;;6270308;28;20017;-64
2022/03/06 03:06:38;;;;;;;46.40;19.63;;;;;;;;;;6271572;28;20028;-64
2022/03/06 03:09:38;;;;;;;37.80;20.17;;;;;;;;;;6271895;28;20040;-65
2022/03/06 03:12:39;;;;;;;43.38;20.02;;;;;;;;;;6271364;28;20051;-65
2022/03/06 03:15:39;;;;;;;41.95;17.38;;;;;;;;;;6271123;28;20016;-65
2022/03/06 03:18:40;;;;;;;32.42;18.83;;;;;;;;;;6268214;28;20029;-65
2022/03/06 03:21:40;;;;;;;45.97;19.48;;;;;;;;;;6246209;28;20104;-64
2022/03/06 03:24:40;;;;;;;34.92;17.63;;;;;;;;;;6246643;28;20053;-64
2022/03/06 03:27:41;;;;;;;39.35;19.13;;;;;;;;;;6254111;28;20516;-64
2022/03/06 03:30:41;;;;;;;43.60;20.83;;;;;;;;;;6254306;28;20468;-65
2022/03/06 03:33:41;;;;;;;36.03;16.27;;;;;;;;;;6269946;28;20025;-65
2022/03/06 03:36:43;;;;;;;39.28;19.67;;;;;;;;;;6264917;28;20031;-65
2022/03/06 03:39:43;;;;;;;39.47;18.57;;;;;;;;;;6262377;28;20147;-65
2022/03/06 03:42:43;;;;;;;49.20;19.73;;;;;;;;;;6270665;28;20275;-65
2022/03/06 03:45:43;;;;;;;36.15;19.02;;;;;;;;;;6270538;28;20067;-64
2022/03/06 03:48:44;;;;;;;35.58;18.00;;;;;;;;;;6271230;28;20464;-64
2022/03/06 03:51:44;;;;;;;42.28;19.70;;;;;;;;;;6270521;28;20017;-64
2022/03/06 03:54:44;;;;;;;43.47;19.52;;;;;;;;;;6270805;28;20434;-65
2022/03/06 03:57:45;;;;;;;34.25;18.55;;;;;;;;;;6269194;28;20036;-64
2022/03/06 04:00:45;;;;;;;38.92;19.08;;;;;;;;;;6270857;28;20269;-64
2022/03/06 04:03:46;;;;;;;41.28;18.95;;;;;;;;;;6270096;28;20037;-65
2022/03/06 04:06:46;;;;;;;40.58;17.60;;;;;;;;;;6270274;28;20063;-65
2022/03/06 04:09:46;;;;;;;34.28;18.35;;;;;;;;;;6270287;28;20482;-65
2022/03/06 04:12:47;;;;;;;34.10;18.77;;;;;;;;;;6269391;28;20017;-64
2022/03/06 04:15:47;;;;;;;41.38;19.60;;;;;;;;;;6269529;28;20460;-64
2022/03/06 04:18:47;;;;;;;35.60;17.48;;;;;;;;;;6265977;28;20022;-64
2022/03/06 04:21:47;;;;;;;35.13;18.85;;;;;;;;;;6245025;28;20028;-64
2022/03/06 04:24:48;;;;;;;35.50;17.83;;;;;;;;;;6244967;28;20532;-64
2022/03/06 04:27:48;;;;;;;41.72;18.83;;;;;;;;;;6252503;28;20029;-64
2022/03/06 04:30:48;;;;;;;35.28;17.65;;;;;;;;;;6254072;28;20039;-64
2022/03/06 04:33:48;;;;;;;35.72;17.75;;;;;;;;;;6268800;28;20442;-64
2022/03/06 04:36:49;;;;;;;35.85;18.45;;;;;;;;;;6260524;28;20025;-64
2022/03/06 04:39:49;;;;;;;35.22;18.50;;;;;;;;;;6248753;28;20135;-64
2022/03/06 04:42:50;;;;;;;38.40;17.05;;;;;;;;;;6253787;28;20427;-65
2022/03/06 04:45:50;;;;;;;32.67;18.25;;;;;;;;;;6250310;28;20033;-65
2022/03/06 04:48:50;;;;;;;37.97;18.77;;;;;;;;;;6245055;28;20025;-65
2022/03/06 04:51:51;;;;;;;38.92;18.45;;;;;;;;;;6244024;28;20482;-65
2022/03/06 04:54:51;;;;;;;37.72;18.48;;;;;;;;;;6250284;28;20032;-65
2022/03/06 04:57:51;;;;;;;36.63;17.77;;;;;;;;;;6264237;28;20033;-65
2022/03/06 05:00:52;;;;;;;39.97;19.00;;;;;;;;;;6253872;28;20037;-65
2022/03/06 05:03:52;;;;;;;34.47;15.57;;;;;;;;;;6268650;28;20498;-65
2022/03/06 05:06:52;;;;;;;37.83;18.25;;;;;;;;;;6246288;28;20465;-65
2022/03/06 05:09:53;;;;;;;33.17;15.45;;;;;;;;;;6244225;28;20071;-65
2022/03/06 05:12:53;;;;;;;36.55;17.08;;;;;;;;;;6243642;28;20152;-65
2022/03/06 05:15:53;;;;;;;28.38;14.30;;;;;;;;;;6243845;28;20021;-65
2022/03/06 05:18:54;;;;;;;28.10;13.82;;;;;;;;;;6244329;28;20487;-65
2022/03/06 05:21:54;;;;;;;33.42;16.40;;;;;;;;;;6248448;28;20052;-65
2022/03/06 05:24:55;;;;;;;28.80;13.13;;;;;;;;;;6253618;28;20144;-65
2022/03/06 05:27:55;;;;;;;28.45;12.80;;;;;;;;;;6257882;28;20024;-65
2022/03/06 05:30:56;;;;;;;28.38;14.10;;;;;;;;;;6256568;28;20724;-65
2022/03/06 05:33:56;;;;;;;30.38;13.48;;;;;;;;;;6256373;28;20032;-65
2022/03/06 05:36:56;;;;;;;29.25;14.93;;;;;;;;;;6253328;28;20099;-65
2022/03/06 05:39:57;;;;;;;28.30;13.15;;;;;;;;;;6252143;28;20025;-65
2022/03/06 05:42:57;;;;;;;30.48;13.90;;;;;;;;;;6255001;28;20067;-65
2022/03/06 05:45:58;;;;;;;27.23;14.32;;;;;;;;;;6253843;28;20021;-65
2022/03/06 05:48:58;;;;;;;32.93;16.13;;;;;;;;;;6256115;28;20092;-65
2022/03/06 05:51:59;;;;;;;41.60;18.00;;;;;;;;;;6252054;28;20372;-65
2022/03/06 05:54:59;;;;;;;34.47;18.48;;;;;;;;;;6255434;28;20054;-65
2022/03/06 05:57:59;;;;;;;30.20;14.40;;;;;;;;;;6252476;28;20021;-65
2022/03/06 06:01:01;;;;;;;33.40;18.33;;;;;;;;;;6257434;28;20049;-65
2022/03/06 06:04:02;;;;;;;36.05;16.27;;;;;;;;;;6256029;28;20035;-65
2022/03/06 06:07:02;;;;;;;32.40;15.45;;;;;;;;;;6253967;28;20017;-65
2022/03/06 06:10:04;;;;;;;34.38;14.85;;;;;;;;;;6254036;28;20060;-65
2022/03/06 06:13:04;;;;;;;29.10;14.65;;;;;;;;;;6255183;28;20025;-65
2022/03/06 06:16:05;;;;;;;35.70;16.35;;;;;;;;;;6247643;28;20385;-65
2022/03/06 06:19:05;;;;;;;32.30;15.18;;;;;;;;;;6254591;28;20016;-65
2022/03/06 06:22:05;;;;;;;32.70;15.38;;;;;;;;;;6264926;28;20047;-65
2022/03/06 06:25:06;;;;;;;37.70;17.80;;;;;;;;;;6264229;28;20041;-65
2022/03/06 06:28:06;;;;;;;34.78;17.90;;;;;;;;;;6250679;28;20020;-65
2022/03/06 06:31:07;;;;;;;35.60;17.00;;;;;;;;;;6254918;28;20048;-65
2022/03/06 06:34:08;;;;;;;41.03;17.67;;;;;;;;;;6253430;28;20415;-65
2022/03/06 06:37:08;;;;;;;35.70;17.52;;;;;;;;;;6261519;28;20033;-65
2022/03/06 06:40:08;;;;;;;33.58;14.70;;;;;;;;;;6269499;28;20024;-65
2022/03/06 06:43:09;;;;;;;34.47;17.58;;;;;;;;;;6261725;28;20029;-65
2022/03/06 06:46:09;;;;;;;33.10;16.65;;;;;;;;;;6251258;28;20028;-65
2022/03/06 06:49:10;;;;;;;30.58;16.05;;;;;;;;;;6259056;28;20066;-65
2022/03/06 06:52:11;;;;;;;34.38;18.00;;;;;;;;;;6256790;28;20461;-65
2022/03/06 06:55:11;;;;;;;35.33;17.83;;;;;;;;;;6256679;28;20014;-66
2022/03/06 06:58:11;;;;;;;35.13;17.48;;;;;;;;;;6258111;28;20463;-65
2022/03/06 07:01:12;;;;;;;38.72;17.95;;;;;;;;;;6260627;28;20016;-65
2022/03/06 07:04:12;;;;;;;33.33;17.52;;;;;;;;;;6262165;28;20028;-65
2022/03/06 07:07:12;;;;;;;30.95;16.98;;;;;;;;;;6246359;28;20473;-65
2022/03/06 07:10:12;;;;;;;26.83;14.52;;;;;;;;;;6245549;28;20021;-65
2022/03/06 07:13:13;;;;;;;31.00;14.13;;;;;;;;;;6251445;28;20035;-65
2022/03/06 07:16:13;;;;;;;29.65;13.18;;;;;;;;;;6254056;28;20393;-65
2022/03/06 07:19:14;;;;;;;31.83;13.98;;;;;;;;;;6255330;28;20013;-65
2022/03/06 07:22:15;;;;;;;35.65;15.23;;;;;;;;;;6251277;28;20016;-65
2022/03/06 07:25:15;;;;;;;35.47;14.90;;;;;;;;;;6257577;28;20052;-65
2022/03/06 07:28:17;;;;;;;31.85;14.07;;;;;;;;;;6256931;28;20009;-65
2022/03/06 07:31:17;;;;;;;35.05;15.35;;;;;;;;;;6259593;28;20013;-65
2022/03/06 07:34:17;;;;;;;29.90;14.70;;;;;;;;;;6254757;28;20044;-65
2022/03/06 07:37:18;;;;;;;22.27;9.82;;;;;;;;;;6250263;28;20021;-65
2022/03/06 07:40:19;;;;;;;18.90;9.73;;;;;;;;;;6256713;28;20021;-65
2022/03/06 07:43:19;;;;;;;13.65;8.68;;;;;;;;;;6255546;28;20467;-65
2022/03/06 07:46:19;;;;;;;18.23;8.82;;;;;;;;;;6245433;28;20022;-65
2022/03/06 07:49:20;;;;;;;14.18;7.40;;;;;;;;;;6245122;28;20025;-65
2022/03/06 07:52:20;;;;;;;16.90;7.68;;;;;;;;;;6243766;28;20120;-66
2022/03/06 07:55:20;;;;;;;15.15;6.80;;;;;;;;;;6244210;28;20056;-66
2022/03/06 07:58:21;;;;;;;11.60;5.78;;;;;;;;;;6244369;28;20032;-66
2022/03/06 08:01:23;;;;;;;13.27;5.63;;;;;;;;;;6257818;28;20435;-66
2022/03/06 08:04:23;;;;;;;8.57;4.60;;;;;;;;;;6267958;28;20098;-66
2022/03/06 08:07:23;;;;;;;9.00;4.97;;;;;;;;;;6268566;28;20468;-66
2022/03/06 08:10:23;;;;;;;10.20;4.97;;;;;;;;;;6268482;28;20392;-66
2022/03/06 08:13:24;;;;;;;7.88;4.40;;;;;;;;;;6268914;28;20017;-66
2022/03/06 08:16:24;;;;;;;9.63;4.55;;;;;;;;;;6265188;28;20099;-66
2022/03/06 08:19:24;;;;;;;10.40;5.82;;;;;;;;;;6244104;28;20385;-67
2022/03/06 08:22:25;;;;;;;8.25;3.90;;;;;;;;;;6246150;28;20479;-67
2022/03/06 08:25:25;;;;;;;7.68;3.80;;;;;;;;;;6255561;28;20083;-67
2022/03/06 08:28:25;;;;;;;8.05;3.80;;;;;;;;;;6256555;28;20017;-67
2022/03/06 08:31:25;;;;;;;8.27;4.47;;;;;;;;;;6252490;28;20147;-67
2022/03/06 08:34:26;;;;;;;6.50;3.97;;;;;;;;;;6252254;28;20489;-67
2022/03/06 08:37:26;;;;;;;7.97;3.60;;;;;;;;;;6253530;28;20028;-67
2022/03/06 08:40:26;;;;;;;7.95;3.92;;;;;;;;;;6255310;28;20097;-67
2022/03/06 08:43:26;;;;;;;9.35;4.35;;;;;;;;;;6253929;28;20029;-67
2022/03/06 08:46:27;;;;;;;6.93;4.05;;;;;;;;;;6250712;28;20117;-67
2022/03/06 08:49:27;;;;;;;7.43;3.65;;;;;;;;;;6243165;28;20025;-67
2022/03/06 08:52:27;;;;;;;6.93;4.38;;;;;;;;;;6242070;28;20017;-67
2022/03/06 08:55:29;;;;;;;8.68;4.72;;;;;;;;;;6243322;28;20021;-67
2022/03/06 08:58:29;;;;;;;9.15;4.53;;;;;;;;;;6242771;28;20029;-67
2022/03/06 09:01:29;;;;;;;8.48;4.95;;;;;;;;;;6257936;28;20083;-67
2022/03/06 09:04:33;;;;;;;8.55;4.43;;;;;;;;;;6267726;28;20087;-67
2022/03/06 09:07:33;;;;;;;8.05;5.00;;;;;;;;;;6268363;28;20048;-67
2022/03/06 09:10:34;;;;;;;7.80;4.15;;;;;;;;;;6265268;28;20025;-67
2022/03/06 09:13:34;;;;;;;14.07;6.65;;;;;;;;;;6258263;28;20025;-67
2022/03/06 09:16:34;;;;;;;14.40;6.32;;;;;;;;;;6251913;28;20087;-68
2022/03/06 09:19:35;;;;;;;10.60;5.38;;;;;;;;;;6250486;28;20029;-68
2022/03/06 09:22:35;;;;;;;9.07;5.50;;;;;;;;;;6252404;28;20021;-68
2022/03/06 09:25:36;;;;;;;11.55;5.55;;;;;;;;;;6257278;28;20504;-68
2022/03/06 09:28:36;;;;;;;10.30;6.80;;;;;;;;;;6256243;28;20025;-68
2022/03/06 09:31:39;;;;;;;10.27;4.97;;;;;;;;;;6256710;28;20045;-68
2022/03/06 09:34:40;;;;;;;9.30;4.43;;;;;;;;;;6257879;28;21046;-68
2022/03/06 09:37:40;;;;;;;9.57;5.45;;;;;;;;;;6250990;28;20116;-68
2022/03/06 09:40:42;;;;;;;7.78;4.85;;;;;;;;;;6250773;28;20029;-69
2022/03/06 09:43:43;;;;;;;9.70;4.95;;;;;;;;;;6248385;28;20108;-69
2022/03/06 09:46:43;;;;;;;9.57;5.97;;;;;;;;;;6245447;28;20037;-69
2022/03/06 09:49:44;;;;;;;17.38;9.30;;;;;;;;;;6251050;28;20381;-69
2022/03/06 09:52:45;;;;;;;12.40;6.20;;;;;;;;;;6247918;28;20022;-69
2022/03/06 09:55:45;;;;;;;15.60;8.50;;;;;;;;;;6247584;28;20013;-69
2022/03/06 09:58:45;;;;;;;10.25;5.63;;;;;;;;;;6245144;28;20049;-69
2022/03/06 10:01:46;;;;;;;12.57;7.97;;;;;;;;;;6251186;28;20025;-70
2022/03/06 10:04:46;;;;;;;16.90;8.60;;;;;;;;;;6243917;28;20028;-70
2022/03/06 10:07:46;;;;;;;14.02;7.32;;;;;;;;;;6256462;28;20063;-70
2022/03/06 10:10:48;;;;;;;15.40;6.20;;;;;;;;;;6257790;28;20045;-70
2022/03/06 10:13:48;;;;;;;9.73;5.20;;;;;;;;;;6262241;28;20028;-70
2022/03/06 10:17:07;;;;;;;10.73;6.03;;;;;;;;;;6255188;28;20110;-70
2022/03/06 10:20:12;;;;;;;11.38;7.00;;;;;;;;;;6250066;28;20056;-70
2022/03/06 10:23:25;;;;;;;11.13;5.95;;;;;;;;;;6259413;28;20032;-70
2022/03/06 10:26:27;;;;;;;12.82;5.97;;;;;;;;;;6260634;28;20049;-70
2022/03/06 10:29:29;;;;;;;16.73;6.45;;;;;;;;;;6260942;28;20018;-70
2022/03/06 10:32:50;;;;;;;11.85;6.72;;;;;;;;;;6259268;28;20044;-70
2022/03/06 10:35:50;;;;;;;11.40;6.35;;;;;;;;;;6268040;28;20037;-70
2022/03/06 10:38:54;;;;;;;10.10;4.90;;;;;;;;;;6252546;28;20078;-70
2022/03/06 10:41:55;;;;;;;11.40;5.90;;;;;;;;;;6255508;28;20024;-70
2022/03/06 10:44:55;;;;;;;9.48;5.38;;;;;;;;;;6254154;28;20021;-70
2022/03/06 10:47:56;;;;;;;12.60;7.07;;;;;;;;;;6261792;28;20017;-70
2022/03/06 10:51:00;;;;;;;11.35;6.28;;;;;;;;;;6274156;28;20013;-70
2022/03/06 10:54:00;;;;;;;15.48;6.38;;;;;;;;;;6259326;28;20025;-70
2022/03/06 10:57:08;;;;;;;12.05;6.28;;;;;;;;;;6259433;28;20045;-70
2022/03/06 11:00:10;;;;;;;13.07;6.93;;;;;;;;;;6258151;28;20017;-70
2022/03/06 11:03:12;;;;;;;;;;;;;;;;;;6261376;28;20013;-70
2022/03/06 11:06:14;;;;;;;11.85;6.32;;;;;;;;;;6259505;28;20284;-70
2022/03/06 11:09:15;;;;;;;13.10;7.57;;;;;;;;;;6257857;28;20534;-70
2022/03/06 11:12:16;;;;;;;16.00;7.93;;;;;;;;;;6257575;28;20028;-70
2022/03/06 11:15:16;;;;;;;11.80;7.65;;;;;;;;;;6250757;28;20354;-70
2022/03/06 11:18:18;;;;;;;8.85;5.22;;;;;;;;;;6258600;28;20104;-70
2022/03/06 11:21:18;;;;;;;16.70;6.38;;;;;;;;;;6259905;28;20471;-70
2022/03/06 11:24:20;;;;;;;13.48;5.97;;;;;;;;;;6255683;28;20045;-70
2022/03/06 11:27:24;;;;;;;13.15;6.00;;;;;;;;;;6254563;28;20026;-70
2022/03/06 11:30:25;;;;;;;10.85;6.95;;;;;;;;;;6267024;28;20565;-70
2022/03/06 11:33:25;;;;;;;11.40;6.38;;;;;;;;;;6256619;28;20031;-70
2022/03/06 11:36:26;;;;;;;13.70;5.78;;;;;;;;;;6253907;28;20533;-70
2022/03/06 11:39:29;;;;;;;14.25;6.55;;;;;;;;;;6255530;28;20029;-70
2022/03/06 11:42:48;;;;;;;12.15;6.75;;;;;;;;;;6254589;28;20028;-70
2022/03/06 11:45:49;;;;;;;14.50;6.38;;;;;;;;;;6262996;28;20021;-70
2022/03/06 11:48:50;;;;;;;13.32;6.03;;;;;;;;;;6256671;28;20025;-70
2022/03/06 11:51:50;;;;;;;11.82;5.25;;;;;;;;;;6252162;28;20048;-70
2022/03/06 11:54:50;;;;;;;12.60;6.65;;;;;;;;;;6246103;28;20063;-70
2022/03/06 11:57:51;;;;;;;14.85;5.68;;;;;;;;;;6247151;28;20079;-70
2022/03/06 12:00:52;;;;;;;11.20;6.00;;;;;;;;;;6260386;28;20023;-70
2022/03/06 12:04:00;;;;;;;10.50;5.82;;;;;;;;;;6270862;28;20017;-70
2022/03/06 12:07:05;;;;;;;12.13;6.65;;;;;;;;;;6271993;28;20025;-70
2022/03/06 12:10:09;;;;;;;13.50;7.00;;;;;;;;;;6271268;28;20021;-70
2022/03/06 12:13:16;;;;;;;14.27;6.97;;;;;;;;;;6271880;28;20021;-70
2022/03/06 12:16:16;;;;;;;9.95;5.63;;;;;;;;;;6271265;28;20349;-70
2022/03/06 12:19:17;;;;;;;12.70;5.85;;;;;;;;;;6263561;28;20029;-70
2022/03/06 12:22:21;;;;;;;13.50;6.18;;;;;;;;;;6246683;28;20029;-70
2022/03/06 12:25:27;;;;;;;13.25;7.72;;;;;;;;;;6249896;28;20507;-70
2022/03/06 12:28:35;;;;;;;14.38;6.57;;;;;;;;;;6251970;28;20022;-70
2022/03/06 12:31:37;;;;;;;12.77;7.05;;;;;;;;;;6262112;28;20020;-70
2022/03/06 12:34:38;;;;;;;14.63;6.88;;;;;;;;;;6271301;28;20009;-70
2022/03/06 12:37:40;;;;;;;13.35;6.97;;;;;;;;;;6256555;28;20092;-70
2022/03/06 12:40:41;;;;;;;14.00;6.45;;;;;;;;;;6248877;28;20021;-70
2022/03/06 12:43:48;;;;;;;14.02;7.57;;;;;;;;;;6247392;28;20024;-70
2022/03/06 12:46:49;;;;;;;15.82;7.63;;;;;;;;;;6247515;28;20014;-70
2022/03/06 12:49:50;;;;;;;15.57;8.52;;;;;;;;;;6247428;28;20040;-70
2022/03/06 12:52:53;;;;;;;16.13;7.43;;;;;;;;;;6247024;28;20034;-70
2022/03/06 12:55:59;;;;;;;15.88;6.57;;;;;;;;;;6247810;28;20083;-70
2022/03/06 12:59:04;;;;;;;13.68;7.25;;;;;;;;;;6247022;28;20383;-70
2022/03/06 13:02:06;;;;;;;17.83;10.10;;;;;;;;;;6265561;28;20031;-70
2022/03/06 13:05:06;;;;;;;17.60;7.78;;;;;;;;;;6270975;28;20025;-70
2022/03/06 13:08:07;;;;;;;15.73;7.53;;;;;;;;;;6271299;28;20110;-70
2022/03/06 13:11:08;;;;;;;14.63;7.38;;;;;;;;;;6270975;28;20024;-70
2022/03/06 13:14:09;;;;;;;13.50;6.53;;;;;;;;;;6270484;28;20013;-70
2022/03/06 13:17:10;;;;;;;14.23;6.30;;;;;;;;;;6271234;28;20021;-70
2022/03/06 13:20:11;;;;;;;13.75;7.28;;;;;;;;;;6254911;28;20454;-70
2022/03/06 13:23:18;;;;;;;12.43;6.93;;;;;;;;;;6246082;28;20032;-70
2022/03/06 13:26:19;;;;;;;15.68;6.55;;;;;;;;;;6256583;28;20052;-70
2022/03/06 13:29:19;;;;;;;12.35;6.40;;;;;;;;;;6245988;28;20393;-70
2022/03/06 13:32:26;;;;;;;15.57;7.22;;;;;;;;;;6267639;28;20461;-70
2022/03/06 13:35:30;;;;;;;11.13;6.47;;;;;;;;;;6271564;28;20024;-70
2022/03/06 13:38:34;;;;;;;15.23;7.07;;;;;;;;;;6271329;28;20056;-70
2022/03/06 13:41:35;;;;;;;10.55;5.38;;;;;;;;;;6271269;28;20017;-70
2022/03/06 13:44:35;;;;;;;11.63;7.32;;;;;;;;;;6271765;28;20021;-70
2022/03/06 13:47:46;;;;;;;11.43;6.22;;;;;;;;;;6270575;28;20017;-70
2022/03/06 13:50:50;;;;;;;12.57;6.90;;;;;;;;;;6272651;28;20495;-70
2022/03/06 13:53:54;;;;;;;12.73;6.97;;;;;;;;;;6271724;28;20032;-72
2022/03/06 13:56:58;;;;;;;11.32;6.28;;;;;;;;;;6260830;28;20025;-70
2022/03/06 14:00:18;;;;;;;14.68;7.00;;;;;;;;;;6248232;28;20048;-70
2022/03/06 14:03:25;;;;;;;13.02;7.35;;;;;;;;;;6271461;28;20487;-70
2022/03/06 14:06:33;;;;;;;15.60;7.57;;;;;;;;;;6271341;28;20036;-70
2022/03/06 14:09:33;;;;;;;18.17;10.23;;;;;;;;;;6269551;28;20021;-70
2022/03/06 14:12:35;;;;;;;12.23;7.18;;;;;;;;;;6271375;28;20017;-70
2022/03/06 14:15:35;;;;;;;13.55;6.10;;;;;;;;;;6270614;28;20036;-70
2022/03/06 14:18:37;;;;;;;14.23;7.97;;;;;;;;;;6268965;28;20029;-70
2022/03/06 14:21:41;;;;;;;18.98;8.27;;;;;;;;;;6245777;28;20072;-70
2022/03/06 14:24:41;;;;;;;16.30;8.65;;;;;;;;;;6245268;28;20420;-70
2022/03/06 14:27:41;;;;;;;17.83;9.35;;;;;;;;;;6251399;28;20020;-70
2022/03/06 14:30:41;;;;;;;18.33;8.77;;;;;;;;;;6250823;28;20014;-70
2022/03/06 14:33:42;;;;;;;18.60;8.82;;;;;;;;;;6246248;28;20021;-70
2022/03/06 14:36:43;;;;;;;17.35;8.07;;;;;;;;;;6259297;28;20541;-70
2022/03/06 14:39:43;;;;;;;17.05;8.88;;;;;;;;;;6255128;28;20032;-70
2022/03/06 14:42:44;;;;;;;17.15;9.13;;;;;;;;;;6255578;28;20017;-70
2022/03/06 14:45:44;;;;;;;14.55;7.35;;;;;;;;;;6244123;28;20516;-70
2022/03/06 14:48:50;;;;;;;16.98;8.93;;;;;;;;;;6244741;28;20075;-70
2022/03/06 14:51:51;;;;;;;16.40;8.32;;;;;;;;;;6243253;28;20017;-70
2022/03/06 14:54:51;;;;;;;22.58;10.32;;;;;;;;;;6244983;28;20225;-70
2022/03/06 14:57:51;;;;;;;18.42;9.75;;;;;;;;;;6258934;28;20075;-70
2022/03/06 15:00:52;;;;;;;17.08;9.55;;;;;;;;;;6259306;28;20028;-70
2022/03/06 15:03:52;;;;;;;16.73;8.82;;;;;;;;;;6256123;28;20097;-70
2022/03/06 15:06:53;;;;;;;18.50;9.93;;;;;;;;;;6257149;28;20487;-70
2022/03/06 15:09:53;;;;;;;20.55;10.02;;;;;;;;;;6258159;28;20017;-70
2022/03/06 15:12:54;;;;;;;14.80;8.10;;;;;;;;;;6253640;28;20425;-70
2022/03/06 15:15:54;;;;;;;21.15;10.95;;;;;;;;;;6251088;28;20021;-70
2022/03/06 15:18:55;;;;;;;22.02;11.00;;;;;;;;;;6256514;28;20025;-70
2022/03/06 15:21:55;;;;;;;25.98;12.90;;;;;;;;;;6254827;28;20067;-70
2022/03/06 15:24:57;;;;;;;19.77;8.98;;;;;;;;;;6259529;28;20045;-70
2022/03/06 15:27:59;;;;;;;14.75;7.00;;;;;;;;;;6261245;28;20027;-70
2022/03/06 15:31:01;;;;;;;16.50;9.13;;;;;;;;;;6264164;28;20020;-70
2022/03/06 15:34:01;;;;;;;20.55;9.95;;;;;;;;;;6259169;28;20858;-70
2022/03/06 15:37:01;;;;;;;22.70;10.82;;;;;;;;;;6259161;28;20022;-70
2022/03/06 15:40:03;;;;;;;19.60;10.43;;;;;;;;;;6255932;28;20420;-70
2022/03/06 15:43:03;;;;;;;17.02;8.82;;;;;;;;;;6257422;28;20020;-70
2022/03/06 15:46:04;;;;;;;16.15;8.57;;;;;;;;;;6261598;28;20384;-70
2022/03/06 15:49:04;;;;;;;18.05;9.32;;;;;;;;;;6257324;28;20428;-70
2022/03/06 15:52:04;;;;;;;22.70;10.48;;;;;;;;;;6258632;28;20025;-70
2022/03/06 15:55:05;;;;;;;20.42;11.30;;;;;;;;;;6258302;28;20472;-70
2022/03/06 15:58:05;;;;;;;22.92;10.50;;;;;;;;;;6269753;28;20035;-70
2022/03/06 16:01:06;;;;;;;26.38;11.05;;;;;;;;;;6264860;28;20067;-70
2022/03/06 16:04:06;;;;;;;28.10;11.73;;;;;;;;;;6257255;28;20028;-70
2022/03/06 16:07:07;;;;;;;31.48;14.55;;;;;;;;;;6270484;28;20021;-70
2022/03/06 16:10:07;;;;;;;34.42;15.75;;;;;;;;;;6270368;28;20047;-70
2022/03/06 16:13:07;;;;;;;30.45;14.35;;;;;;;;;;6272541;28;20052;-70
2022/03/06 16:16:08;;;;;;;29.45;14.63;;;;;;;;;;6272336;28;20385;-70
2022/03/06 16:19:08;;;;;;;26.67;14.43;;;;;;;;;;6265396;28;20517;-70
2022/03/06 16:22:09;;;;;;;26.63;11.70;;;;;;;;;;6247157;28;20025;-70
2022/03/06 16:25:09;;;;;;;26.13;12.00;;;;;;;;;;6247433;28;20523;-70
2022/03/06 16:28:09;;;;;;;19.08;9.82;;;;;;;;;;6262319;28;20555;-70
2022/03/06 16:31:10;;;;;;;19.38;10.38;;;;;;;;;;6255215;28;20025;-70
2022/03/06 16:34:10;;;;;;;24.45;10.05;;;;;;;;;;6257042;28;20053;-70
2022/03/06 16:37:10;;;;;;;18.35;10.45;;;;;;;;;;6256642;28;20016;-70
2022/03/06 16:40:11;;;;;;;20.60;11.32;;;;;;;;;;6258257;28;20021;-70
2022/03/06 16:43:12;;;;;;;22.05;10.30;;;;;;;;;;6261556;28;20036;-70
2022/03/06 16:46:13;;;;;;;23.50;10.57;;;;;;;;;;6253941;28;20021;-70
2022/03/06 16:49:13;;;;;;;19.65;9.40;;;;;;;;;;6255696;28;20044;-70
2022/03/06 16:52:13;;;;;;;17.55;9.95;;;;;;;;;;6256620;28;20013;-70
2022/03/06 16:55:13;;;;;;;21.42;9.48;;;;;;;;;;6251877;28;20492;-70
2022/03/06 16:58:14;;;;;;;17.73;9.63;;;;;;;;;;6252989;28;20013;-70
2022/03/06 17:01:15;;;;;;;20.80;10.75;;;;;;;;;;6254118;28;20018;-70
2022/03/06 17:04:15;;;;;;;21.63;10.18;;;;;;;;;;6248631;28;20022;-70
2022/03/06 17:07:15;;;;;;;22.58;11.40;;;;;;;;;;6250536;28;20534;-70
2022/03/06 17:10:15;;;;;;;26.23;12.20;;;;;;;;;;6255438;28;20036;-67
2022/03/06 17:13:16;;;;;;;20.73;10.20;;;;;;;;;;6251587;28;20033;-67
2022/03/06 17:16:16;;;;;;;19.67;10.10;;;;;;;;;;6253016;28;20021;-69
2022/03/06 17:19:17;;;;;;;20.88;10.70;;;;;;;;;;6249534;28;20033;-68
2022/03/06 17:22:17;;;;;;;21.67;11.02;;;;;;;;;;6262814;28;20056;-68
2022/03/06 17:25:17;;;;;;;25.52;11.70;;;;;;;;;;6255132;28;20097;-68
2022/03/06 17:28:19;;;;;;;23.10;11.65;;;;;;;;;;6256260;28;20061;-68
2022/03/06 17:31:19;;;;;;;24.65;11.65;;;;;;;;;;6266498;28;20009;-68
2022/03/06 17:34:19;;;;;;;23.60;10.43;;;;;;;;;;6252912;28;20017;-68
2022/03/06 17:37:20;;;;;;;19.33;11.05;;;;;;;;;;6252991;28;20021;-68
2022/03/06 17:40:20;;;;;;;24.00;11.70;;;;;;;;;;6249368;28;20047;-68
2022/03/06 17:43:21;;;;;;;25.45;11.95;;;;;;;;;;6246774;28;20026;-68